This is the latest recevied weather packets stored in our database for station/object N3DXC. If no packets are shown the sender has not sent any weather packets the latest 1 day(s).
| Time | Temp. | Humidity | Pressure | Rain* | Wind** | Luminosity | Snow |
|---|---|---|---|---|---|---|---|
| 1778082287 | 11.67° C | 95% | 1008.2 hPa | 0 mm | - | - | - |
| 1778081987 | 11.67° C | 95% | 1008.1 hPa | 0 mm | - | - | - |
| 1778081387 | 11.67° C | 95% | 1007.8 hPa | 0 mm | - | - | - |
| 1778080787 | 12.22° C | 95% | 1007.6 hPa | 0 mm | - | - | - |
| 1778080489 | 11.67° C | 95% | 1007.5 hPa | 0.25 mm | - | - | - |
| 1778078989 | 13.33° C | 96% | 1006.9 hPa | 0.25 mm | - | - | - |
| 1778077788 | 12.78° C | 96% | 1006.9 hPa | 0.25 mm | - | - | - |
| 1778077187 | 13.33° C | 95% | 1006.8 hPa | 0.25 mm | - | - | - |
| 1778075987 | 13.33° C | 95% | 1006.7 hPa | 0 mm | - | - | - |
| 1778075389 | 12.78° C | 96% | 1006.7 hPa | 0 mm | - | - | - |
| 1778070288 | 12.22° C | 96% | 1007 hPa | 0 mm | - | - | - |
| 1778069988 | 12.22° C | 97% | 1007 hPa | 0 mm | - | - | - |
| 1778069088 | 12.22° C | 97% | 1006.9 hPa | 0 mm | - | - | - |
| 1778067288 | 12.22° C | 96% | 1006.8 hPa | 0.25 mm | - | - | - |
| 1778066388 | 12.22° C | 95% | 1007.2 hPa | 0.25 mm | - | - | - |
| 1778062489 | 12.78° C | 94% | 1007.1 hPa | 0.25 mm | - | - | - |
| 1778061888 | 12.78° C | 93% | 1007.3 hPa | 0.25 mm | - | - | - |
| 1778061288 | 12.78° C | 93% | 1007.5 hPa | 0.25 mm | - | - | - |
| 1778060688 | 12.78° C | 93% | 1007.5 hPa | 0 mm | - | - | - |
| 1778060088 | 12.78° C | 93% | 1007.5 hPa | 0 mm | - | - | - |
| 1778059788 | 12.78° C | 93% | 1007.5 hPa | 0 mm | - | - | - |
| 1778059488 | 12.78° C | 94% | 1007.6 hPa | 0 mm | - | - | - |
| 1778059188 | 12.22° C | 94% | 1007.6 hPa | 0 mm | - | - | - |
| 1778058888 | 12.22° C | 95% | 1007.6 hPa | 0 mm | - | - | - |
| 1778058588 | 12.22° C | 95% | 1007.5 hPa | 0.25 mm | - | - | - |
* Rain latest hour (hover to see other rain measurements)
** Current wind speed in m/s (hover to see current wind gust speed)